»·PEaware :: N512TN KDRO-KFMN

N512TN :: KDRO-KFMN

FLIGHT INFORMATION

Flight Status: Arrived
Operator: Privately registered:
United States
More flights under this callsign
Pilot: Steven M. (455)
Aircraft: CIRRUS SR-22
(SR22)
More flights by this aircraft type
Origin: KDRO Durango-La Plata Co
United States
Destination: KFMN Four Corners Regl
United States
More flights between these airports :: More routes between these airports
Route:
File this flight plan on PilotEdge
Remarks:
Altitude:
(Current/Filed)
8,500ft
Speed:
(Current/Filed)
180kts
Departed: 19-Nov-21 11:08 AM
Arrived: 19-Nov-21 11:31 AM
Distance/Time
Traveled:
33nm/0:22
Distance/Time
To Go:
Arrived

Flight Plot

Page will automatically refresh every two minutes.

Flight plan parsing failed; only flown route is shown


Map Options




Map Legend


Flown Route
Filed Route
Departure Airport
Arrival Airport
Navaid (VOR, NDB)
Fix

Horizontal Profiles

Position Reports

Time Latitude Longitude Heading Altitude Ground
Speed
19-Nov-21 10:48 37.153601 -107.754058 306 6688ft 0kts
19-Nov-21 10:49 37.153601 -107.754058 306 6688ft 0kts
19-Nov-21 10:50 37.153601 -107.754058 306 6688ft 0kts
19-Nov-21 10:51 37.153601 -107.754058 306 6688ft 0kts
19-Nov-21 10:52 37.153601 -107.754058 306 6688ft 0kts
19-Nov-21 10:53 37.153601 -107.754058 306 6688ft 0kts
19-Nov-21 10:54 37.153601 -107.754058 306 6688ft 0kts
19-Nov-21 10:55 37.153601 -107.754058 306 6688ft 0kts
19-Nov-21 10:56 37.152999 -107.754727 204 6688ft 6kts
19-Nov-21 10:57 37.151880 -107.755104 216 6688ft 5kts
19-Nov-21 10:58 37.150504 -107.756474 227 6688ft 9kts
19-Nov-21 10:59 37.147985 -107.758832 217 6688ft 11kts
19-Nov-21 11:00 37.145508 -107.761218 216 6688ft 11kts
19-Nov-21 11:01 37.143408 -107.763319 206 6688ft 5kts
19-Nov-21 11:02 37.143050 -107.764243 164 6688ft 0kts
19-Nov-21 11:03 37.143050 -107.764243 165 6688ft 0kts
19-Nov-21 11:04 37.143050 -107.764243 165 6688ft 0kts
19-Nov-21 11:05 37.143050 -107.764243 165 6688ft 0kts
19-Nov-21 11:06 37.142022 -107.763924 141 6688ft 6kts
19-Nov-21 11:07 37.151708 -107.753867 37 7032ft 105kts
19-Nov-21 11:08 37.174546 -107.764317 248 8424ft 144kts
19-Nov-21 11:09 37.150013 -107.802304 211 9925ft 134kts
19-Nov-21 11:10 37.111742 -107.823562 208 10540ft 166kts
19-Nov-21 11:11 37.069201 -107.848146 213 10543ft 169kts
19-Nov-21 11:12 37.035923 -107.887837 229 10470ft 165kts
19-Nov-21 11:13 37.002826 -107.927278 227 10470ft 164kts
19-Nov-21 11:14 36.969233 -107.966310 227 10471ft 164kts
19-Nov-21 11:15 36.934864 -108.006337 227 10035ft 175kts
19-Nov-21 11:16 36.898863 -108.048104 225 9337ft 176kts
19-Nov-21 11:17 36.863026 -108.089653 223 8641ft 176kts
19-Nov-21 11:18 36.825909 -108.128241 208 7918ft 172kts
19-Nov-21 11:19 36.781637 -108.145189 205 7323ft 149kts
19-Nov-21 11:20 36.761524 -108.177595 241 6586ft 108kts
19-Nov-21 11:21 36.749043 -108.210495 242 5849ft 103kts
19-Nov-21 11:22 36.737749 -108.240165 240 5834ft 107kts
19-Nov-21 11:23 36.711599 -108.239075 104 6660ft 132kts
19-Nov-21 11:24 36.725926 -108.201362 55 6457ft 106kts
19-Nov-21 11:25 36.747944 -108.207371 289 5908ft 99kts
19-Nov-21 11:26 36.738886 -108.237449 242 5730ft 108kts
19-Nov-21 11:27 36.710695 -108.245740 132 6681ft 145kts
19-Nov-21 11:28 36.721053 -108.201939 57 6485ft 119kts
19-Nov-21 11:29 36.747895 -108.205541 304 5920ft 97kts
19-Nov-21 11:30 36.741214 -108.231115 243 5506ft 38kts
19-Nov-21 11:31 36.739754 -108.233074 67 5506ft 4kts
19-Nov-21 11:32 36.740538 -108.230384 88 5506ft 12kts
19-Nov-21 11:33 36.740493 -108.226408 125 5506ft 8kts
19-Nov-21 11:34 36.739694 -108.225162 252 5506ft 2kts
19-Nov-21 11:35 36.739688 -108.225248 267 5506ft 0kts
19-Nov-21 11:36 36.739688 -108.225248 267 5506ft 0kts
19-Nov-21 11:37 36.739688 -108.225248 267 5506ft 0kts
19-Nov-21 11:38 36.739688 -108.225248 267 5506ft 0kts
19-Nov-21 11:39 36.739688 -108.225248 267 5506ft 0kts
19-Nov-21 11:40 36.739688 -108.225248 267 5506ft 0kts
19-Nov-21 11:41 36.739688 -108.225248 267 5506ft 0kts
19-Nov-21 11:42 36.739688 -108.225248 267 5506ft 0kts
19-Nov-21 11:43 36.739688 -108.225248 267 5506ft 0kts
19-Nov-21 11:44 36.739688 -108.225248 267 5506ft 0kts

Navigation Log

Ident Type
Flight plan parsing failed, navigation log unavailable